sensor_id;sensor_type;location;lat;lon;timestamp;P1;durP1;ratioP1;P2;durP2;ratioP2
52962;SDS011;38827;53.024;6.596;2023-06-04T00:01:20;6.82;;;3.03;;
52962;SDS011;38827;53.024;6.596;2023-06-04T00:03:46;5.68;;;3.13;;
52962;SDS011;38827;53.024;6.596;2023-06-04T00:06:12;5.63;;;3.00;;
52962;SDS011;38827;53.024;6.596;2023-06-04T00:08:37;9.25;;;2.97;;
52962;SDS011;38827;53.024;6.596;2023-06-04T00:11:03;9.02;;;3.30;;
52962;SDS011;38827;53.024;6.596;2023-06-04T00:13:29;4.55;;;2.78;;
52962;SDS011;38827;53.024;6.596;2023-06-04T00:15:55;9.82;;;2.88;;
52962;SDS011;38827;53.024;6.596;2023-06-04T00:18:20;5.90;;;3.17;;
52962;SDS011;38827;53.024;6.596;2023-06-04T00:20:49;4.93;;;2.75;;
52962;SDS011;38827;53.024;6.596;2023-06-04T00:23:15;12.05;;;3.05;;
52962;SDS011;38827;53.024;6.596;2023-06-04T00:25:40;8.32;;;3.20;;
52962;SDS011;38827;53.024;6.596;2023-06-04T00:28:06;7.30;;;3.20;;
52962;SDS011;38827;53.024;6.596;2023-06-04T00:30:31;6.63;;;3.58;;
52962;SDS011;38827;53.024;6.596;2023-06-04T00:32:57;5.45;;;2.95;;
52962;SDS011;38827;53.024;6.596;2023-06-04T00:35:23;8.07;;;3.10;;
52962;SDS011;38827;53.024;6.596;2023-06-04T00:37:49;8.13;;;3.50;;
52962;SDS011;38827;53.024;6.596;2023-06-04T00:40:15;8.18;;;3.03;;
52962;SDS011;38827;53.024;6.596;2023-06-04T00:42:41;7.38;;;3.15;;
52962;SDS011;38827;53.024;6.596;2023-06-04T00:45:06;7.88;;;3.13;;
52962;SDS011;38827;53.024;6.596;2023-06-04T00:47:34;12.07;;;3.42;;
52962;SDS011;38827;53.024;6.596;2023-06-04T00:50:00;10.57;;;3.42;;
52962;SDS011;38827;53.024;6.596;2023-06-04T00:52:26;7.80;;;3.60;;
52962;SDS011;38827;53.024;6.596;2023-06-04T00:54:52;7.35;;;3.58;;
52962;SDS011;38827;53.024;6.596;2023-06-04T00:57:20;10.77;;;4.43;;
52962;SDS011;38827;53.024;6.596;2023-06-04T00:59:48;8.85;;;3.60;;
52962;SDS011;38827;53.024;6.596;2023-06-04T01:02:19;8.60;;;3.42;;
52962;SDS011;38827;53.024;6.596;2023-06-04T01:07:33;8.47;;;3.87;;
52962;SDS011;38827;53.024;6.596;2023-06-04T01:10:00;11.07;;;3.47;;
52962;SDS011;38827;53.024;6.596;2023-06-04T01:12:26;8.63;;;3.83;;
52962;SDS011;38827;53.024;6.596;2023-06-04T01:14:52;7.63;;;3.75;;
52962;SDS011;38827;53.024;6.596;2023-06-04T01:17:20;8.82;;;3.53;;
52962;SDS011;38827;53.024;6.596;2023-06-04T01:25:31;7.57;;;3.20;;
52962;SDS011;38827;53.024;6.596;2023-06-04T01:34:23;9.37;;;3.90;;
52962;SDS011;38827;53.024;6.596;2023-06-04T01:36:54;9.82;;;3.53;;
52962;SDS011;38827;53.024;6.596;2023-06-04T01:39:38;9.80;;;3.88;;
52962;SDS011;38827;53.024;6.596;2023-06-04T01:42:06;8.07;;;3.72;;
52962;SDS011;38827;53.024;6.596;2023-06-04T01:44:32;9.15;;;4.20;;
52962;SDS011;38827;53.024;6.596;2023-06-04T01:46:57;12.30;;;4.72;;
52962;SDS011;38827;53.024;6.596;2023-06-04T01:49:23;10.45;;;4.15;;
52962;SDS011;38827;53.024;6.596;2023-06-04T01:51:49;9.00;;;4.35;;
52962;SDS011;38827;53.024;6.596;2023-06-04T01:54:14;10.88;;;4.05;;
52962;SDS011;38827;53.024;6.596;2023-06-04T01:56:41;9.98;;;4.32;;
52962;SDS011;38827;53.024;6.596;2023-06-04T01:59:07;13.77;;;4.75;;
52962;SDS011;38827;53.024;6.596;2023-06-04T02:01:33;13.98;;;5.15;;
52962;SDS011;38827;53.024;6.596;2023-06-04T02:03:59;12.20;;;4.85;;
52962;SDS011;38827;53.024;6.596;2023-06-04T02:06:25;7.75;;;4.45;;
52962;SDS011;38827;53.024;6.596;2023-06-04T02:08:55;11.73;;;4.97;;
52962;SDS011;38827;53.024;6.596;2023-06-04T02:11:21;17.52;;;5.60;;
52962;SDS011;38827;53.024;6.596;2023-06-04T02:13:47;9.75;;;4.88;;
52962;SDS011;38827;53.024;6.596;2023-06-04T02:16:13;12.93;;;5.00;;
52962;SDS011;38827;53.024;6.596;2023-06-04T02:18:39;11.88;;;4.72;;
52962;SDS011;38827;53.024;6.596;2023-06-04T02:21:08;10.38;;;5.18;;
52962;SDS011;38827;53.024;6.596;2023-06-04T02:23:33;13.25;;;5.18;;
52962;SDS011;38827;53.024;6.596;2023-06-04T02:25:59;11.55;;;4.85;;
52962;SDS011;38827;53.024;6.596;2023-06-04T02:28:25;15.98;;;5.45;;
52962;SDS011;38827;53.024;6.596;2023-06-04T02:30:50;12.52;;;5.53;;
52962;SDS011;38827;53.024;6.596;2023-06-04T02:33:16;12.07;;;5.35;;
52962;SDS011;38827;53.024;6.596;2023-06-04T02:35:42;8.48;;;4.57;;
52962;SDS011;38827;53.024;6.596;2023-06-04T02:38:07;12.95;;;4.82;;
52962;SDS011;38827;53.024;6.596;2023-06-04T02:40:33;13.73;;;5.20;;
52962;SDS011;38827;53.024;6.596;2023-06-04T02:42:59;11.10;;;4.88;;
52962;SDS011;38827;53.024;6.596;2023-06-04T02:45:26;11.70;;;4.70;;
52962;SDS011;38827;53.024;6.596;2023-06-04T02:47:53;9.40;;;4.80;;
52962;SDS011;38827;53.024;6.596;2023-06-04T02:50:20;9.15;;;4.70;;
52962;SDS011;38827;53.024;6.596;2023-06-04T02:52:46;11.23;;;4.97;;
52962;SDS011;38827;53.024;6.596;2023-06-04T02:55:11;10.27;;;5.00;;
52962;SDS011;38827;53.024;6.596;2023-06-04T02:57:39;12.35;;;5.90;;
52962;SDS011;38827;53.024;6.596;2023-06-04T03:00:07;11.77;;;5.65;;
52962;SDS011;38827;53.024;6.596;2023-06-04T03:02:37;12.00;;;5.72;;
52962;SDS011;38827;53.024;6.596;2023-06-04T03:05:05;12.80;;;5.35;;
52962;SDS011;38827;53.024;6.596;2023-06-04T03:07:43;15.35;;;5.70;;
52962;SDS011;38827;53.024;6.596;2023-06-04T03:10:11;10.73;;;5.47;;
52962;SDS011;38827;53.024;6.596;2023-06-04T03:12:38;13.00;;;5.43;;
52962;SDS011;38827;53.024;6.596;2023-06-04T03:15:04;14.35;;;5.70;;
52962;SDS011;38827;53.024;6.596;2023-06-04T03:17:30;11.87;;;5.47;;
52962;SDS011;38827;53.024;6.596;2023-06-04T03:19:56;11.60;;;5.75;;
52962;SDS011;38827;53.024;6.596;2023-06-04T03:22:22;12.75;;;5.45;;
52962;SDS011;38827;53.024;6.596;2023-06-04T03:24:48;11.68;;;5.57;;
52962;SDS011;38827;53.024;6.596;2023-06-04T03:27:14;11.73;;;6.07;;
52962;SDS011;38827;53.024;6.596;2023-06-04T03:29:40;12.77;;;5.90;;
52962;SDS011;38827;53.024;6.596;2023-06-04T03:32:06;10.55;;;5.25;;
52962;SDS011;38827;53.024;6.596;2023-06-04T03:34:32;12.85;;;6.63;;
52962;SDS011;38827;53.024;6.596;2023-06-04T03:36:58;13.35;;;5.57;;
52962;SDS011;38827;53.024;6.596;2023-06-04T03:39:24;13.93;;;5.88;;
52962;SDS011;38827;53.024;6.596;2023-06-04T03:41:50;10.23;;;5.20;;
52962;SDS011;38827;53.024;6.596;2023-06-04T03:44:16;10.05;;;5.47;;
52962;SDS011;38827;53.024;6.596;2023-06-04T03:46:43;11.25;;;5.43;;
52962;SDS011;38827;53.024;6.596;2023-06-04T03:49:09;14.18;;;6.03;;
52962;SDS011;38827;53.024;6.596;2023-06-04T03:51:36;17.75;;;6.07;;
52962;SDS011;38827;53.024;6.596;2023-06-04T03:54:02;15.55;;;6.40;;
52962;SDS011;38827;53.024;6.596;2023-06-04T03:56:28;13.57;;;7.38;;
52962;SDS011;38827;53.024;6.596;2023-06-04T03:58:54;12.75;;;6.10;;
52962;SDS011;38827;53.024;6.596;2023-06-04T04:01:20;12.93;;;6.53;;
52962;SDS011;38827;53.024;6.596;2023-06-04T04:03:49;13.40;;;5.82;;
52962;SDS011;38827;53.024;6.596;2023-06-04T04:06:16;15.93;;;6.28;;
52962;SDS011;38827;53.024;6.596;2023-06-04T04:08:42;14.23;;;6.28;;
52962;SDS011;38827;53.024;6.596;2023-06-04T04:11:12;12.23;;;6.05;;
52962;SDS011;38827;53.024;6.596;2023-06-04T04:13:40;16.13;;;6.80;;
52962;SDS011;38827;53.024;6.596;2023-06-04T04:16:06;9.93;;;6.45;;
52962;SDS011;38827;53.024;6.596;2023-06-04T04:18:34;15.20;;;6.60;;
52962;SDS011;38827;53.024;6.596;2023-06-04T04:21:01;14.68;;;6.75;;
52962;SDS011;38827;53.024;6.596;2023-06-04T04:23:28;16.73;;;6.85;;
52962;SDS011;38827;53.024;6.596;2023-06-04T04:25:55;12.68;;;6.50;;
52962;SDS011;38827;53.024;6.596;2023-06-04T04:28:24;11.80;;;6.25;;
52962;SDS011;38827;53.024;6.596;2023-06-04T04:30:53;12.68;;;6.32;;
52962;SDS011;38827;53.024;6.596;2023-06-04T04:33:19;12.73;;;6.90;;
52962;SDS011;38827;53.024;6.596;2023-06-04T04:35:45;19.40;;;7.68;;
52962;SDS011;38827;53.024;6.596;2023-06-04T04:38:13;13.35;;;7.35;;
52962;SDS011;38827;53.024;6.596;2023-06-04T04:40:38;15.32;;;6.97;;
52962;SDS011;38827;53.024;6.596;2023-06-04T04:43:04;16.95;;;6.35;;
52962;SDS011;38827;53.024;6.596;2023-06-04T04:45:30;13.88;;;7.07;;
52962;SDS011;38827;53.024;6.596;2023-06-04T04:47:55;14.77;;;7.13;;
52962;SDS011;38827;53.024;6.596;2023-06-04T04:50:21;13.23;;;6.53;;
52962;SDS011;38827;53.024;6.596;2023-06-04T04:52:50;12.63;;;6.25;;
52962;SDS011;38827;53.024;6.596;2023-06-04T04:55:15;17.05;;;7.30;;
52962;SDS011;38827;53.024;6.596;2023-06-04T04:57:44;17.15;;;7.45;;
52962;SDS011;38827;53.024;6.596;2023-06-04T05:00:10;16.23;;;7.05;;
52962;SDS011;38827;53.024;6.596;2023-06-04T05:02:37;14.65;;;6.97;;
52962;SDS011;38827;53.024;6.596;2023-06-04T05:05:03;14.50;;;7.20;;
52962;SDS011;38827;53.024;6.596;2023-06-04T05:07:29;16.05;;;7.10;;
52962;SDS011;38827;53.024;6.596;2023-06-04T05:09:55;14.10;;;6.65;;
52962;SDS011;38827;53.024;6.596;2023-06-04T05:12:20;18.10;;;7.18;;
52962;SDS011;38827;53.024;6.596;2023-06-04T05:14:46;14.63;;;6.95;;
52962;SDS011;38827;53.024;6.596;2023-06-04T05:17:12;18.55;;;7.03;;
52962;SDS011;38827;53.024;6.596;2023-06-04T05:19:38;16.70;;;6.97;;
52962;SDS011;38827;53.024;6.596;2023-06-04T05:22:04;12.95;;;6.85;;
52962;SDS011;38827;53.024;6.596;2023-06-04T05:24:30;14.95;;;6.13;;
52962;SDS011;38827;53.024;6.596;2023-06-04T05:34:53;12.73;;;5.70;;
52962;SDS011;38827;53.024;6.596;2023-06-04T05:37:31;12.43;;;6.00;;
52962;SDS011;38827;53.024;6.596;2023-06-04T05:40:11;12.20;;;5.45;;
52962;SDS011;38827;53.024;6.596;2023-06-04T05:42:37;10.20;;;4.63;;
52962;SDS011;38827;53.024;6.596;2023-06-04T05:45:04;11.73;;;5.17;;
52962;SDS011;38827;53.024;6.596;2023-06-04T05:47:30;16.98;;;5.85;;
52962;SDS011;38827;53.024;6.596;2023-06-04T05:49:56;17.83;;;5.45;;
52962;SDS011;38827;53.024;6.596;2023-06-04T05:52:22;12.10;;;5.65;;
52962;SDS011;38827;53.024;6.596;2023-06-04T05:54:48;12.30;;;4.70;;
52962;SDS011;38827;53.024;6.596;2023-06-04T05:57:14;13.05;;;4.45;;
52962;SDS011;38827;53.024;6.596;2023-06-04T05:59:40;9.85;;;4.65;;
52962;SDS011;38827;53.024;6.596;2023-06-04T06:02:06;11.52;;;4.20;;
52962;SDS011;38827;53.024;6.596;2023-06-04T06:04:32;11.38;;;3.92;;
52962;SDS011;38827;53.024;6.596;2023-06-04T06:06:58;8.05;;;3.55;;
52962;SDS011;38827;53.024;6.596;2023-06-04T06:09:23;11.82;;;3.50;;
52962;SDS011;38827;53.024;6.596;2023-06-04T06:11:49;9.98;;;2.97;;
52962;SDS011;38827;53.024;6.596;2023-06-04T06:14:15;6.20;;;2.33;;
52962;SDS011;38827;53.024;6.596;2023-06-04T06:16:40;12.73;;;2.58;;
52962;SDS011;38827;53.024;6.596;2023-06-04T06:19:06;11.43;;;3.13;;
52962;SDS011;38827;53.024;6.596;2023-06-04T06:21:32;8.45;;;3.20;;
52962;SDS011;38827;53.024;6.596;2023-06-04T06:23:57;9.00;;;2.75;;
52962;SDS011;38827;53.024;6.596;2023-06-04T06:26:24;11.65;;;3.00;;
52962;SDS011;38827;53.024;6.596;2023-06-04T06:28:50;8.17;;;3.30;;
52962;SDS011;38827;53.024;6.596;2023-06-04T06:31:16;10.23;;;2.87;;
52962;SDS011;38827;53.024;6.596;2023-06-04T06:33:42;10.65;;;3.03;;
52962;SDS011;38827;53.024;6.596;2023-06-04T06:36:09;12.85;;;3.25;;
52962;SDS011;38827;53.024;6.596;2023-06-04T06:38:37;11.40;;;3.35;;
52962;SDS011;38827;53.024;6.596;2023-06-04T06:41:02;11.90;;;3.53;;
52962;SDS011;38827;53.024;6.596;2023-06-04T06:43:29;8.27;;;3.17;;
52962;SDS011;38827;53.024;6.596;2023-06-04T06:45:59;7.88;;;2.55;;
52962;SDS011;38827;53.024;6.596;2023-06-04T06:48:25;10.27;;;2.88;;
52962;SDS011;38827;53.024;6.596;2023-06-04T06:50:51;9.48;;;2.75;;
52962;SDS011;38827;53.024;6.596;2023-06-04T06:53:16;8.52;;;2.90;;
52962;SDS011;38827;53.024;6.596;2023-06-04T06:55:42;7.03;;;2.47;;
52962;SDS011;38827;53.024;6.596;2023-06-04T06:58:07;8.43;;;2.67;;
52962;SDS011;38827;53.024;6.596;2023-06-04T07:00:33;8.45;;;3.13;;
52962;SDS011;38827;53.024;6.596;2023-06-04T07:02:59;8.07;;;2.80;;
52962;SDS011;38827;53.024;6.596;2023-06-04T07:05:25;6.83;;;2.70;;
52962;SDS011;38827;53.024;6.596;2023-06-04T07:07:51;6.47;;;2.63;;
52962;SDS011;38827;53.024;6.596;2023-06-04T07:10:17;8.73;;;2.67;;
52962;SDS011;38827;53.024;6.596;2023-06-04T07:12:43;7.70;;;2.67;;
52962;SDS011;38827;53.024;6.596;2023-06-04T07:15:10;10.05;;;3.13;;
52962;SDS011;38827;53.024;6.596;2023-06-04T07:17:35;7.18;;;2.50;;
52962;SDS011;38827;53.024;6.596;2023-06-04T07:20:02;10.88;;;3.22;;
52962;SDS011;38827;53.024;6.596;2023-06-04T07:22:31;9.95;;;2.75;;
52962;SDS011;38827;53.024;6.596;2023-06-04T07:24:57;10.30;;;2.55;;
52962;SDS011;38827;53.024;6.596;2023-06-04T07:27:23;8.32;;;2.97;;
52962;SDS011;38827;53.024;6.596;2023-06-04T07:29:49;7.30;;;2.08;;
52962;SDS011;38827;53.024;6.596;2023-06-04T07:32:14;6.40;;;2.25;;
52962;SDS011;38827;53.024;6.596;2023-06-04T07:34:40;7.88;;;2.10;;
52962;SDS011;38827;53.024;6.596;2023-06-04T07:37:06;10.90;;;2.05;;
52962;SDS011;38827;53.024;6.596;2023-06-04T07:39:32;5.57;;;1.77;;
52962;SDS011;38827;53.024;6.596;2023-06-04T07:41:58;8.60;;;2.42;;
52962;SDS011;38827;53.024;6.596;2023-06-04T07:44:24;7.97;;;2.17;;
52962;SDS011;38827;53.024;6.596;2023-06-04T07:46:49;7.15;;;2.22;;
52962;SDS011;38827;53.024;6.596;2023-06-04T07:49:15;6.95;;;2.17;;
52962;SDS011;38827;53.024;6.596;2023-06-04T07:51:41;5.47;;;2.08;;
52962;SDS011;38827;53.024;6.596;2023-06-04T07:54:15;6.22;;;1.90;;
52962;SDS011;38827;53.024;6.596;2023-06-04T07:56:42;6.22;;;1.85;;
52962;SDS011;38827;53.024;6.596;2023-06-04T07:59:07;7.03;;;1.80;;
52962;SDS011;38827;53.024;6.596;2023-06-04T08:01:33;8.77;;;1.85;;
52962;SDS011;38827;53.024;6.596;2023-06-04T08:03:59;3.95;;;1.60;;
52962;SDS011;38827;53.024;6.596;2023-06-04T08:06:28;4.18;;;1.40;;
52962;SDS011;38827;53.024;6.596;2023-06-04T08:08:57;4.20;;;1.80;;
52962;SDS011;38827;53.024;6.596;2023-06-04T08:11:22;4.10;;;1.48;;
52962;SDS011;38827;53.024;6.596;2023-06-04T08:16:15;5.87;;;1.70;;
52962;SDS011;38827;53.024;6.596;2023-06-04T08:18:41;5.17;;;1.43;;
52962;SDS011;38827;53.024;6.596;2023-06-04T08:21:10;4.03;;;1.58;;
52962;SDS011;38827;53.024;6.596;2023-06-04T08:23:37;4.82;;;1.48;;
52962;SDS011;38827;53.024;6.596;2023-06-04T08:26:03;3.47;;;1.10;;
52962;SDS011;38827;53.024;6.596;2023-06-04T08:28:28;6.23;;;1.30;;
52962;SDS011;38827;53.024;6.596;2023-06-04T08:30:54;5.57;;;1.20;;
52962;SDS011;38827;53.024;6.596;2023-06-04T08:33:20;2.95;;;1.30;;
52962;SDS011;38827;53.024;6.596;2023-06-04T08:35:45;2.88;;;1.25;;
52962;SDS011;38827;53.024;6.596;2023-06-04T08:38:11;2.45;;;1.20;;
52962;SDS011;38827;53.024;6.596;2023-06-04T08:40:37;4.13;;;1.27;;
52962;SDS011;38827;53.024;6.596;2023-06-04T08:43:03;1.85;;;1.20;;
52962;SDS011;38827;53.024;6.596;2023-06-04T08:45:30;2.85;;;1.38;;
52962;SDS011;38827;53.024;6.596;2023-06-04T08:47:58;3.00;;;1.40;;
52962;SDS011;38827;53.024;6.596;2023-06-04T08:50:25;4.70;;;1.40;;
52962;SDS011;38827;53.024;6.596;2023-06-04T08:52:52;3.70;;;1.40;;
52962;SDS011;38827;53.024;6.596;2023-06-04T08:55:22;2.80;;;1.20;;
52962;SDS011;38827;53.024;6.596;2023-06-04T08:57:51;3.33;;;1.33;;
52962;SDS011;38827;53.024;6.596;2023-06-04T09:02:49;3.40;;;1.40;;
52962;SDS011;38827;53.024;6.596;2023-06-04T09:05:19;4.10;;;1.70;;
52962;SDS011;38827;53.024;6.596;2023-06-04T09:07:46;2.50;;;1.40;;
52962;SDS011;38827;53.024;6.596;2023-06-04T09:10:15;2.15;;;1.00;;
52962;SDS011;38827;53.024;6.596;2023-06-04T09:12:43;3.22;;;1.48;;
52962;SDS011;38827;53.024;6.596;2023-06-04T09:15:12;2.67;;;1.30;;
52962;SDS011;38827;53.024;6.596;2023-06-04T09:17:38;4.63;;;1.53;;
52962;SDS011;38827;53.024;6.596;2023-06-04T09:20:04;3.92;;;1.20;;
52962;SDS011;38827;53.024;6.596;2023-06-04T09:22:38;3.78;;;1.50;;
52962;SDS011;38827;53.024;6.596;2023-06-04T09:25:04;2.47;;;1.25;;
52962;SDS011;38827;53.024;6.596;2023-06-04T09:27:39;3.95;;;1.40;;
52962;SDS011;38827;53.024;6.596;2023-06-04T09:30:05;3.10;;;1.52;;
52962;SDS011;38827;53.024;6.596;2023-06-04T09:32:33;4.60;;;1.80;;
52962;SDS011;38827;53.024;6.596;2023-06-04T09:41:15;3.53;;;1.20;;
52962;SDS011;38827;53.024;6.596;2023-06-04T09:43:42;2.75;;;1.33;;
52962;SDS011;38827;53.024;6.596;2023-06-04T09:48:34;9.23;;;1.58;;
52962;SDS011;38827;53.024;6.596;2023-06-04T09:51:10;4.23;;;1.60;;
52962;SDS011;38827;53.024;6.596;2023-06-04T09:53:37;5.03;;;1.50;;
52962;SDS011;38827;53.024;6.596;2023-06-04T09:56:03;4.97;;;1.88;;
52962;SDS011;38827;53.024;6.596;2023-06-04T09:58:31;4.55;;;1.30;;
52962;SDS011;38827;53.024;6.596;2023-06-04T10:00:58;3.90;;;1.40;;
52962;SDS011;38827;53.024;6.596;2023-06-04T10:03:25;4.75;;;1.60;;
52962;SDS011;38827;53.024;6.596;2023-06-04T10:05:53;3.55;;;1.30;;
52962;SDS011;38827;53.024;6.596;2023-06-04T10:08:22;6.38;;;1.52;;
52962;SDS011;38827;53.024;6.596;2023-06-04T10:10:50;3.00;;;1.30;;
52962;SDS011;38827;53.024;6.596;2023-06-04T10:13:20;4.68;;;1.33;;
52962;SDS011;38827;53.024;6.596;2023-06-04T10:15:48;6.43;;;1.40;;
52962;SDS011;38827;53.024;6.596;2023-06-04T10:18:15;2.92;;;1.30;;
52962;SDS011;38827;53.024;6.596;2023-06-04T10:20:42;3.47;;;1.20;;
52962;SDS011;38827;53.024;6.596;2023-06-04T10:23:08;3.30;;;1.40;;
52962;SDS011;38827;53.024;6.596;2023-06-04T10:25:38;4.70;;;1.50;;
52962;SDS011;38827;53.024;6.596;2023-06-04T10:28:03;5.15;;;1.30;;
52962;SDS011;38827;53.024;6.596;2023-06-04T10:30:30;5.30;;;1.30;;
52962;SDS011;38827;53.024;6.596;2023-06-04T10:33:04;2.75;;;1.30;;
52962;SDS011;38827;53.024;6.596;2023-06-04T10:35:33;3.20;;;1.47;;
52962;SDS011;38827;53.024;6.596;2023-06-04T10:38:07;2.53;;;1.20;;
52962;SDS011;38827;53.024;6.596;2023-06-04T10:40:34;3.78;;;1.17;;
52962;SDS011;38827;53.024;6.596;2023-06-04T10:43:10;5.18;;;1.35;;
52962;SDS011;38827;53.024;6.596;2023-06-04T10:45:38;4.80;;;1.40;;
52962;SDS011;38827;53.024;6.596;2023-06-04T10:48:09;5.00;;;1.40;;
52962;SDS011;38827;53.024;6.596;2023-06-04T10:50:47;2.92;;;1.60;;
52962;SDS011;38827;53.024;6.596;2023-06-04T10:53:14;4.68;;;1.48;;
52962;SDS011;38827;53.024;6.596;2023-06-04T10:55:45;5.38;;;1.40;;
52962;SDS011;38827;53.024;6.596;2023-06-04T10:58:11;4.38;;;1.38;;
52962;SDS011;38827;53.024;6.596;2023-06-04T11:00:46;4.25;;;1.40;;
52962;SDS011;38827;53.024;6.596;2023-06-04T11:03:14;6.43;;;1.50;;
52962;SDS011;38827;53.024;6.596;2023-06-04T11:05:46;4.32;;;1.20;;
52962;SDS011;38827;53.024;6.596;2023-06-04T11:08:13;3.40;;;1.27;;
52962;SDS011;38827;53.024;6.596;2023-06-04T11:10:45;3.88;;;1.40;;
52962;SDS011;38827;53.024;6.596;2023-06-04T11:13:11;3.95;;;1.30;;
52962;SDS011;38827;53.024;6.596;2023-06-04T11:15:44;3.55;;;1.13;;
52962;SDS011;38827;53.024;6.596;2023-06-04T11:18:14;3.72;;;1.50;;
52962;SDS011;38827;53.024;6.596;2023-06-04T11:20:41;4.65;;;1.35;;
52962;SDS011;38827;53.024;6.596;2023-06-04T11:23:13;3.55;;;1.20;;
52962;SDS011;38827;53.024;6.596;2023-06-04T11:25:40;5.65;;;1.13;;
52962;SDS011;38827;53.024;6.596;2023-06-04T11:28:14;3.75;;;1.35;;
52962;SDS011;38827;53.024;6.596;2023-06-04T11:30:42;3.80;;;1.60;;
52962;SDS011;38827;53.024;6.596;2023-06-04T11:33:07;3.33;;;1.30;;
52962;SDS011;38827;53.024;6.596;2023-06-04T11:35:40;4.97;;;1.30;;
52962;SDS011;38827;53.024;6.596;2023-06-04T11:38:08;2.88;;;1.25;;
52962;SDS011;38827;53.024;6.596;2023-06-04T11:43:10;3.22;;;1.35;;
52962;SDS011;38827;53.024;6.596;2023-06-04T11:45:36;2.47;;;1.23;;
52962;SDS011;38827;53.024;6.596;2023-06-04T11:48:03;3.70;;;1.40;;
52962;SDS011;38827;53.024;6.596;2023-06-04T11:50:30;4.07;;;1.10;;
52962;SDS011;38827;53.024;6.596;2023-06-04T11:52:56;5.03;;;1.40;;
52962;SDS011;38827;53.024;6.596;2023-06-04T12:15:58;10.43;;;1.92;;
52962;SDS011;38827;53.024;6.596;2023-06-04T12:22:05;3.60;;;1.75;;
52962;SDS011;38827;53.024;6.596;2023-06-04T12:27:51;4.68;;;1.60;;
52962;SDS011;38827;53.024;6.596;2023-06-04T12:30:20;6.10;;;1.33;;
52962;SDS011;38827;53.024;6.596;2023-06-04T12:32:52;11.02;;;1.80;;
52962;SDS011;38827;53.024;6.596;2023-06-04T12:35:24;2.72;;;1.30;;
52962;SDS011;38827;53.024;6.596;2023-06-04T12:37:49;2.55;;;1.30;;
52962;SDS011;38827;53.024;6.596;2023-06-04T12:42:51;2.47;;;1.40;;
52962;SDS011;38827;53.024;6.596;2023-06-04T13:22:32;3.75;;;1.40;;
52962;SDS011;38827;53.024;6.596;2023-06-04T13:24:58;4.17;;;1.50;;
52962;SDS011;38827;53.024;6.596;2023-06-04T13:27:23;2.73;;;1.30;;
52962;SDS011;38827;53.024;6.596;2023-06-04T13:29:49;4.30;;;1.33;;
52962;SDS011;38827;53.024;6.596;2023-06-04T13:32:15;4.30;;;1.53;;
52962;SDS011;38827;53.024;6.596;2023-06-04T13:34:41;2.70;;;1.40;;
52962;SDS011;38827;53.024;6.596;2023-06-04T13:37:06;3.00;;;1.40;;
52962;SDS011;38827;53.024;6.596;2023-06-04T13:39:35;2.35;;;1.30;;
52962;SDS011;38827;53.024;6.596;2023-06-04T13:42:01;3.03;;;1.30;;
52962;SDS011;38827;53.024;6.596;2023-06-04T13:44:27;4.57;;;1.50;;
52962;SDS011;38827;53.024;6.596;2023-06-04T13:46:53;3.10;;;1.15;;
52962;SDS011;38827;53.024;6.596;2023-06-04T13:49:19;4.07;;;1.33;;
52962;SDS011;38827;53.024;6.596;2023-06-04T13:51:46;3.60;;;1.10;;
52962;SDS011;38827;53.024;6.596;2023-06-04T13:54:11;4.03;;;1.33;;
52962;SDS011;38827;53.024;6.596;2023-06-04T13:56:40;2.30;;;1.00;;
52962;SDS011;38827;53.024;6.596;2023-06-04T14:20:07;1.67;;;1.10;;
52962;SDS011;38827;53.024;6.596;2023-06-04T14:23:07;2.65;;;1.25;;
52962;SDS011;38827;53.024;6.596;2023-06-04T14:25:42;3.08;;;1.40;;
52962;SDS011;38827;53.024;6.596;2023-06-04T14:28:07;3.25;;;1.38;;
52962;SDS011;38827;53.024;6.596;2023-06-04T14:31:50;2.80;;;1.30;;
52962;SDS011;38827;53.024;6.596;2023-06-04T14:41:19;2.88;;;1.25;;
52962;SDS011;38827;53.024;6.596;2023-06-04T14:43:57;3.42;;;1.60;;
52962;SDS011;38827;53.024;6.596;2023-06-04T14:46:44;3.40;;;1.45;;
52962;SDS011;38827;53.024;6.596;2023-06-04T14:49:10;2.65;;;1.38;;
52962;SDS011;38827;53.024;6.596;2023-06-04T14:51:45;5.37;;;1.60;;
52962;SDS011;38827;53.024;6.596;2023-06-04T14:56:54;3.70;;;1.70;;
52962;SDS011;38827;53.024;6.596;2023-06-04T14:59:29;14.57;;;5.68;;
52962;SDS011;38827;53.024;6.596;2023-06-04T15:02:46;2.45;;;1.60;;
52962;SDS011;38827;53.024;6.596;2023-06-04T15:05:11;4.33;;;1.63;;
52962;SDS011;38827;53.024;6.596;2023-06-04T15:07:37;4.37;;;1.30;;
52962;SDS011;38827;53.024;6.596;2023-06-04T15:10:03;3.03;;;1.20;;
52962;SDS011;38827;53.024;6.596;2023-06-04T15:37:52;4.03;;;1.65;;
52962;SDS011;38827;53.024;6.596;2023-06-04T15:40:18;4.15;;;1.50;;
52962;SDS011;38827;53.024;6.596;2023-06-04T15:42:59;4.20;;;1.67;;
52962;SDS011;38827;53.024;6.596;2023-06-04T15:45:33;3.05;;;1.27;;
52962;SDS011;38827;53.024;6.596;2023-06-04T15:47:59;4.10;;;1.80;;
52962;SDS011;38827;53.024;6.596;2023-06-04T15:50:25;3.83;;;1.33;;
52962;SDS011;38827;53.024;6.596;2023-06-04T15:52:51;4.00;;;1.50;;
52962;SDS011;38827;53.024;6.596;2023-06-04T15:55:17;4.70;;;1.13;;
52962;SDS011;38827;53.024;6.596;2023-06-04T15:58:12;3.42;;;1.50;;
52962;SDS011;38827;53.024;6.596;2023-06-04T16:00:41;3.47;;;1.50;;
52962;SDS011;38827;53.024;6.596;2023-06-04T16:03:17;5.47;;;1.60;;
52962;SDS011;38827;53.024;6.596;2023-06-04T16:05:42;4.43;;;1.30;;
52962;SDS011;38827;53.024;6.596;2023-06-04T16:08:08;3.85;;;1.50;;
52962;SDS011;38827;53.024;6.596;2023-06-04T16:10:34;5.43;;;2.10;;
52962;SDS011;38827;53.024;6.596;2023-06-04T16:12:59;5.18;;;1.73;;
52962;SDS011;38827;53.024;6.596;2023-06-04T16:15:25;5.55;;;1.58;;
52962;SDS011;38827;53.024;6.596;2023-06-04T16:21:15;3.63;;;1.50;;
52962;SDS011;38827;53.024;6.596;2023-06-04T16:35:03;4.00;;;1.50;;
52962;SDS011;38827;53.024;6.596;2023-06-04T16:38:26;7.13;;;1.75;;
52962;SDS011;38827;53.024;6.596;2023-06-04T16:40:55;3.27;;;1.77;;
52962;SDS011;38827;53.024;6.596;2023-06-04T16:46:32;6.38;;;1.83;;
52962;SDS011;38827;53.024;6.596;2023-06-04T16:49:01;4.40;;;1.73;;
52962;SDS011;38827;53.024;6.596;2023-06-04T16:51:45;3.67;;;1.60;;
52962;SDS011;38827;53.024;6.596;2023-06-04T16:54:11;5.47;;;1.63;;
52962;SDS011;38827;53.024;6.596;2023-06-04T16:56:37;9.80;;;2.08;;
52962;SDS011;38827;53.024;6.596;2023-06-04T16:59:03;4.18;;;1.42;;
52962;SDS011;38827;53.024;6.596;2023-06-04T17:01:28;3.55;;;1.50;;
52962;SDS011;38827;53.024;6.596;2023-06-04T17:03:54;3.30;;;1.50;;
52962;SDS011;38827;53.024;6.596;2023-06-04T17:06:20;2.78;;;1.58;;
52962;SDS011;38827;53.024;6.596;2023-06-04T17:08:46;5.07;;;1.73;;
52962;SDS011;38827;53.024;6.596;2023-06-04T17:11:12;4.20;;;1.73;;
52962;SDS011;38827;53.024;6.596;2023-06-04T17:13:38;4.05;;;1.50;;
52962;SDS011;38827;53.024;6.596;2023-06-04T17:16:03;3.50;;;1.52;;
52962;SDS011;38827;53.024;6.596;2023-06-04T17:18:29;4.38;;;1.80;;
52962;SDS011;38827;53.024;6.596;2023-06-04T17:20:55;7.50;;;1.70;;
52962;SDS011;38827;53.024;6.596;2023-06-04T17:23:22;3.55;;;1.63;;
52962;SDS011;38827;53.024;6.596;2023-06-04T17:25:49;3.85;;;1.50;;
52962;SDS011;38827;53.024;6.596;2023-06-04T17:28:15;3.33;;;1.42;;
52962;SDS011;38827;53.024;6.596;2023-06-04T17:30:41;4.53;;;1.55;;
52962;SDS011;38827;53.024;6.596;2023-06-04T17:33:07;3.00;;;1.50;;
52962;SDS011;38827;53.024;6.596;2023-06-04T17:35:35;3.35;;;1.75;;
52962;SDS011;38827;53.024;6.596;2023-06-04T17:38:00;3.55;;;1.73;;
52962;SDS011;38827;53.024;6.596;2023-06-04T17:50:50;4.03;;;1.83;;
52962;SDS011;38827;53.024;6.596;2023-06-04T17:53:15;3.70;;;1.90;;
52962;SDS011;38827;53.024;6.596;2023-06-04T17:55:53;2.78;;;1.63;;
52962;SDS011;38827;53.024;6.596;2023-06-04T17:58:22;4.28;;;1.92;;